createdAt,value
2018-04-12T05:39:46.035Z,50.2
2018-04-12T05:40:36.097Z,50.2
2018-04-12T05:41:26.398Z,50.2
2018-04-12T05:42:16.771Z,50.2
2018-04-12T05:43:06.252Z,50.1
2018-04-12T05:43:56.596Z,50.1
2018-04-12T05:44:46.646Z,50.1
2018-04-12T05:45:35.944Z,50.1
2018-04-12T05:46:27.448Z,50.1
2018-04-12T05:47:17.132Z,50.1
2018-04-12T05:48:07.163Z,50.1
2018-04-12T05:48:56.938Z,50.1
2018-04-12T05:49:47.055Z,50.1
2018-04-12T05:50:37.092Z,50.1
2018-04-12T05:51:27.418Z,50.1
2018-04-12T05:52:16.931Z,50.1
2018-04-12T05:53:06.710Z,50.1
2018-04-12T05:53:57.042Z,50.1
2018-04-12T05:54:47.423Z,50.1
2018-04-12T05:55:37.462Z,50.1
2018-04-12T05:56:27.529Z,50.1
2018-04-12T05:57:17.868Z,50
2018-04-12T05:58:07.937Z,50
2018-04-12T05:58:58.003Z,50.1
2018-04-12T05:59:47.518Z,50.1
2018-04-12T06:00:37.562Z,50
2018-04-12T06:01:27.924Z,50
2018-04-12T06:02:18.007Z,50
2018-04-12T06:03:08.094Z,50
2018-04-12T06:03:58.351Z,50
2018-04-12T06:04:48.144Z,50
2018-04-12T06:05:37.940Z,50
2018-04-12T06:06:27.997Z,50
2018-04-12T06:07:18.624Z,50
2018-04-12T06:08:07.878Z,49.9
2018-04-12T06:08:58.735Z,49.9
2018-04-12T06:09:48.807Z,49.9
2018-04-12T06:10:38.846Z,49.9
2018-04-12T06:11:28.658Z,49.9
2018-04-12T06:12:18.995Z,49.9
2018-04-12T06:13:08.762Z,49.9
2018-04-12T06:13:59.167Z,49.9
2018-04-12T06:14:48.874Z,49.9
2018-04-12T06:15:38.694Z,49.9
2018-04-12T06:16:28.704Z,49.9
2018-04-12T06:17:19.364Z,49.9
2018-04-12T06:18:09.174Z,49.9
2018-04-12T06:18:59.205Z,49.9
2018-04-12T06:19:49.273Z,49.9
2018-04-12T06:20:39.059Z,49.9
2018-04-12T06:21:29.846Z,49.9
2018-04-12T06:22:19.727Z,49.9
2018-04-12T06:23:09.509Z,49.9
2018-04-12T06:23:59.864Z,49.8
2018-04-12T06:24:49.904Z,49.9
2018-04-12T06:25:39.422Z,49.8
2018-04-12T06:26:29.794Z,49.8
2018-04-12T06:27:20.140Z,49.8
2018-04-12T06:28:09.893Z,49.8
2018-04-12T06:28:59.679Z,49.8
2018-04-12T06:29:49.744Z,49.8
2018-04-12T06:30:40.380Z,49.8
2018-04-12T06:31:30.442Z,49.8
2018-04-12T06:32:19.937Z,49.8
2018-04-12T06:33:09.714Z,49.8
2018-04-12T06:34:00.337Z,49.8
2018-04-12T06:34:50.412Z,49.8
2018-04-12T06:35:39.900Z,49.8
2018-04-12T06:36:30.819Z,49.8
2018-04-12T06:37:20.311Z,49.8
2018-04-12T06:38:10.666Z,49.8
2018-04-12T06:39:00.424Z,49.8
2018-04-12T06:39:51.060Z,49.8
2018-04-12T06:40:40.816Z,49.8
2018-04-12T06:41:31.183Z,49.8
2018-04-12T06:42:20.721Z,49.7
2018-04-12T06:43:11.067Z,49.8
2018-04-12T06:44:01.370Z,49.7
2018-04-12T06:44:50.645Z,49.7
2018-04-12T06:45:41.186Z,49.7
2018-04-12T06:46:31.259Z,49.7
2018-04-12T06:47:21.330Z,49.7
2018-04-12T06:48:11.120Z,49.7
2018-04-12T06:49:01.742Z,49.7
2018-04-12T06:49:51.554Z,49.6
2018-04-12T06:50:41.892Z,49.7
2018-04-12T06:51:31.958Z,49.6
2018-04-12T06:52:21.717Z,49.6
2018-04-12T06:53:11.508Z,49.6
2018-04-12T06:54:02.279Z,49.6
2018-04-12T06:54:51.901Z,49.6
2018-04-12T06:55:41.672Z,49.6
2018-04-12T06:56:31.460Z,49.6
2018-04-12T06:57:21.806Z,49.6
2018-04-12T06:58:12.422Z,49.6
2018-04-12T06:59:02.521Z,49.6
2018-04-12T06:59:52.278Z,49.6
2018-04-12T07:00:42.629Z,49.6
2018-04-12T07:01:32.404Z,49.6
2018-04-12T07:02:21.922Z,49.6
2018-04-12T07:03:12.547Z,49.6
2018-04-12T07:04:02.925Z,49.6
2018-04-12T07:04:52.665Z,49.6
2018-04-12T07:05:42.737Z,49.6
2018-04-12T07:06:33.066Z,49.6
2018-04-12T07:07:22.569Z,49.6
2018-04-12T07:08:13.189Z,49.5
2018-04-12T07:09:03.248Z,49.6
2018-04-12T07:09:53.059Z,49.5
2018-04-12T07:10:43.450Z,49.5
2018-04-12T07:11:32.927Z,49.5
2018-04-12T07:12:23.253Z,49.5
2018-04-12T07:13:12.764Z,49.5
2018-04-12T07:14:03.637Z,49.5
2018-04-12T07:14:53.444Z,49.5
2018-04-12T07:15:43.508Z,49.5
2018-04-12T07:16:33.819Z,49.5
2018-04-12T07:17:23.643Z,49.4
2018-04-12T07:18:13.751Z,49.4
2018-04-12T07:19:03.466Z,49.5
2018-04-12T07:19:53.552Z,49.4
2018-04-12T07:20:43.858Z,49.4
2018-04-12T07:21:33.393Z,49.4
2018-04-12T07:22:23.806Z,49.4
2018-04-12T07:23:13.826Z,49.4
2018-04-12T07:24:04.128Z,49.4
2018-04-12T07:24:52.925Z,49.4
2018-04-12T07:25:44.258Z,49.4
2018-04-12T07:26:34.583Z,49.4
2018-04-12T07:27:23.538Z,49.4
2018-04-12T07:28:14.178Z,49.4
2018-04-12T07:29:04.527Z,49.4
2018-04-12T07:29:54.855Z,49.4
2018-04-12T07:30:44.336Z,49.4
2018-04-12T07:31:34.974Z,49.4
2018-04-12T07:32:24.778Z,49.4
2018-04-12T07:33:15.124Z,49.4
2018-04-12T07:34:04.894Z,49.4
2018-04-12T07:34:54.965Z,49.4
2018-04-12T07:35:45.293Z,49.3
2018-04-12T07:36:35.082Z,49.4
2018-04-12T07:37:24.392Z,49.4
2018-04-12T07:38:14.661Z,49.3
2018-04-12T07:39:04.744Z,49.3
2018-04-12T07:39:55.636Z,49.3
2018-04-12T07:40:45.437Z,49.3
2018-04-12T07:41:35.526Z,49.3
2018-04-12T07:42:25.854Z,49.3
2018-04-12T07:43:15.331Z,49.3
2018-04-12T07:44:05.675Z,49.3
2018-04-12T07:44:56.000Z,49.3
2018-04-12T07:45:45.805Z,49.3
2018-04-12T07:46:35.869Z,49.3
2018-04-12T07:47:25.366Z,49.3
2018-04-12T07:48:16.267Z,49.3
2018-04-12T07:49:06.334Z,49.3
2018-04-12T07:49:55.852Z,49.3
2018-04-12T07:50:44.547Z,49.4
2018-04-12T07:51:35.990Z,49.4
2018-04-12T07:52:26.339Z,49.4
2018-04-12T07:53:16.376Z,49.4
2018-04-12T07:54:06.461Z,49.5
2018-04-12T07:54:56.039Z,49.6
2018-04-12T07:55:46.840Z,49.6
2018-04-12T07:56:36.933Z,49.7
2018-04-12T07:57:26.966Z,49.8
2018-04-12T07:58:17.065Z,49.8
2018-04-12T07:59:06.539Z,49.8
2018-04-12T07:59:56.648Z,49.9
2018-04-12T08:00:46.948Z,49.9
2018-04-12T08:01:37.024Z,50
2018-04-12T08:02:27.368Z,50.1
2018-04-12T08:03:17.145Z,50.1
2018-04-12T08:04:06.633Z,50.2
2018-04-12T08:04:57.292Z,50.3
2018-04-12T08:05:47.423Z,50.3
2018-04-12T08:06:37.113Z,50.4
2018-04-12T08:07:27.755Z,50.4
2018-04-12T08:08:17.795Z,50.5
2018-04-12T08:09:07.350Z,50.6
2018-04-12T08:09:57.639Z,50.6
2018-04-12T08:10:47.720Z,50.6
2018-04-12T08:11:38.080Z,50.7
2018-04-12T08:12:28.147Z,50.8
2018-04-12T08:13:17.644Z,50.8
2018-04-12T08:14:08.236Z,50.9
2018-04-12T08:14:58.043Z,50.9
2018-04-12T08:15:48.365Z,51.1
2018-04-12T08:16:37.874Z,51.1
2018-04-12T08:17:28.510Z,51.1
2018-04-12T08:18:18.553Z,51.2
2018-04-12T08:19:08.071Z,51.3
2018-04-12T08:19:58.412Z,51.4
2018-04-12T08:20:48.747Z,51.4
2018-04-12T08:21:38.314Z,51.5
2018-04-12T08:22:28.620Z,51.6
2018-04-12T08:23:18.991Z,51.6
2018-04-12T08:24:08.744Z,51.7
2018-04-12T08:24:59.089Z,51.8
2018-04-12T08:25:48.871Z,51.8
2018-04-12T08:26:38.726Z,51.9
2018-04-12T08:28:18.311Z,52
2018-04-12T08:29:09.416Z,52.1
2018-04-12T08:29:59.458Z,52.1
2018-04-12T08:30:49.556Z,52.2
2018-04-12T08:31:39.324Z,52.3
2018-04-12T08:32:28.836Z,52.3
2018-04-12T08:33:19.471Z,52.4
2018-04-12T08:34:09.249Z,52.5
2018-04-12T08:34:59.556Z,52.6
2018-04-12T08:35:49.653Z,52.6
2018-04-12T08:36:39.993Z,52.7
2018-04-12T08:37:29.804Z,52.8
2018-04-12T08:38:19.582Z,52.9
2018-04-12T08:39:10.175Z,52.9
2018-04-12T08:39:59.984Z,53
2018-04-12T08:40:50.042Z,53.1
2018-04-12T08:41:40.120Z,53.1
2018-04-12T08:42:30.164Z,53.2
2018-04-12T08:43:20.528Z,53.3
2018-04-12T08:44:10.306Z,53.3
2018-04-12T08:45:00.089Z,53.4
2018-04-12T08:45:50.602Z,53.5
2018-04-12T08:46:40.201Z,53.6
2018-04-12T08:47:30.294Z,53.7
2018-04-12T08:48:20.643Z,53.8
2018-04-12T08:49:10.703Z,53.8
2018-04-12T08:50:01.010Z,53.9
2018-04-12T08:50:50.841Z,54
2018-04-12T08:51:40.600Z,54.1
2018-04-12T08:52:30.756Z,54.1
2018-04-12T08:53:21.021Z,54.2
2018-04-12T08:54:11.072Z,54.3
2018-04-12T08:55:01.128Z,54.3
2018-04-12T08:55:51.744Z,54.4
2018-04-12T08:56:41.283Z,54.5
2018-04-12T08:57:31.068Z,54.6
2018-04-12T08:58:21.646Z,54.7
2018-04-12T08:59:10.893Z,54.8
2018-04-12T09:00:01.829Z,54.8
2018-04-12T09:00:51.305Z,54.9
2018-04-12T09:01:41.386Z,55
2018-04-12T09:02:31.235Z,55.1
2018-04-12T09:03:22.062Z,55.1
2018-04-12T09:04:11.293Z,55.2
2018-04-12T09:05:02.212Z,55.3
2018-04-12T09:05:51.964Z,55.4
2018-04-12T09:06:42.053Z,55.4
2018-04-12T09:07:32.150Z,55.5
2018-04-12T09:08:22.211Z,55.6
2018-04-12T09:09:11.967Z,55.7
2018-04-12T09:10:02.610Z,55.8
2018-04-12T09:10:52.088Z,55.8
2018-04-12T09:11:42.727Z,55.9
2018-04-12T09:12:32.780Z,56
2018-04-12T09:13:22.300Z,56.1
2018-04-12T09:14:12.915Z,56.1
2018-04-12T09:15:02.697Z,56.2
2018-04-12T09:15:52.485Z,56.3
2018-04-12T09:16:43.105Z,56.4
2018-04-12T09:17:33.181Z,56.4
2018-04-12T09:18:23.241Z,56.5
2018-04-12T09:19:12.828Z,56.6
2018-04-12T09:20:02.528Z,56.7
2018-04-12T09:20:53.171Z,56.8
2018-04-12T09:21:43.199Z,56.9
2018-04-12T09:22:33.593Z,56.9
2018-04-12T09:23:23.311Z,57
2018-04-12T09:24:13.399Z,57.1
2018-04-12T09:25:03.191Z,57.2
2018-04-12T09:25:53.284Z,57.3
2018-04-12T09:26:43.855Z,57.3
2018-04-12T09:27:33.646Z,57.4
2018-04-12T09:28:23.732Z,57.5
2018-04-12T09:29:14.063Z,57.6
2018-04-12T09:30:03.858Z,57.6
2018-04-12T09:30:54.199Z,57.7
2018-04-12T09:31:44.319Z,57.8
2018-04-12T09:32:34.032Z,57.9
2018-04-12T09:33:24.295Z,57.9
2018-04-12T09:34:14.196Z,58
2018-04-12T09:35:04.527Z,58.1
2018-04-12T09:35:54.011Z,58.2
2018-04-12T09:36:44.119Z,58.3
2018-04-12T09:37:34.448Z,58.3
2018-04-12T09:38:24.798Z,58.4
2018-04-12T09:39:14.027Z,58.5
2018-04-12T09:40:54.704Z,58.6
2018-04-12T09:41:44.784Z,58.7
2018-04-12T09:42:34.554Z,58.8
2018-04-12T09:43:24.904Z,58.9
2018-04-12T09:44:14.687Z,58.9
2018-04-12T09:45:05.326Z,59
2018-04-12T09:45:55.420Z,59.1
2018-04-12T09:46:45.468Z,59.2
2018-04-12T09:47:35.504Z,59.3
2018-04-12T09:48:25.019Z,59.3
2018-04-12T09:49:15.460Z,59.4
2018-04-12T09:50:05.711Z,59.5
2018-04-12T09:50:55.764Z,59.6
2018-04-12T09:51:45.541Z,59.6
2018-04-12T09:52:35.615Z,59.8
2018-04-12T09:53:25.963Z,59.8
2018-04-12T09:54:15.455Z,59.9
2018-04-12T09:55:05.831Z,60
2018-04-12T09:55:55.857Z,60.1
2018-04-12T09:56:45.631Z,60.1
2018-04-12T09:57:36.009Z,60.2
2018-04-12T09:58:25.770Z,60.3
2018-04-12T09:59:16.410Z,60.4
2018-04-12T10:00:06.855Z,60.4
2018-04-12T10:00:56.292Z,60.5
2018-04-12T10:01:46.048Z,60.6
2018-04-12T10:02:36.111Z,60.6
2018-04-12T10:03:26.177Z,60.8
2018-04-12T10:04:16.796Z,60.8
2018-04-12T10:05:06.329Z,60.9
2018-04-12T10:05:56.370Z,60.9
2018-04-12T10:06:47.001Z,61.1
2018-04-12T10:07:37.061Z,61.1
2018-04-12T10:08:26.552Z,61.2
2018-04-12T10:09:16.945Z,61.3
2018-04-12T10:10:06.980Z,61.4
2018-04-12T10:10:57.331Z,61.4
2018-04-12T10:11:46.805Z,61.5
2018-04-12T10:12:36.335Z,61.6
2018-04-12T10:13:27.548Z,61.6
2018-04-12T10:14:17.338Z,61.7
2018-04-12T10:15:07.635Z,61.8
2018-04-12T10:15:57.462Z,61.9
2018-04-12T10:16:47.501Z,62
2018-04-12T10:17:37.555Z,62.1
2018-04-12T10:18:27.947Z,62.1
2018-04-12T10:19:17.695Z,62.2
2018-04-12T10:20:07.747Z,62.3
2018-04-12T10:20:58.126Z,62.3
2018-04-12T10:21:48.164Z,62.4
2018-04-12T10:22:37.956Z,62.5
2018-04-12T10:23:27.735Z,62.6
2018-04-12T10:24:18.095Z,62.6
2018-04-12T10:25:08.413Z,62.7
2018-04-12T10:25:58.471Z,62.8
2018-04-12T10:26:48.267Z,62.9
2018-04-12T10:27:38.120Z,62.9
2018-04-12T10:28:27.912Z,63
2018-04-12T10:29:18.767Z,63.1
2018-04-12T10:30:08.807Z,63.2
2018-04-12T10:30:58.597Z,63.3
2018-04-12T10:31:48.653Z,63.3
2018-04-12T10:32:38.757Z,63.4
2018-04-12T10:33:28.814Z,63.4
2018-04-12T10:34:18.842Z,63.6
2018-04-12T10:35:09.244Z,63.6
2018-04-12T10:35:58.715Z,63.7
2018-04-12T10:36:48.764Z,63.8
2018-04-12T10:37:39.131Z,63.8
2018-04-12T10:38:29.461Z,63.9
2018-04-12T10:39:19.058Z,64
2018-04-12T10:40:09.027Z,64.1
2018-04-12T10:40:59.376Z,64.1
2018-04-12T10:41:49.644Z,64.2
2018-04-12T10:42:39.775Z,64.3
2018-04-12T10:43:29.589Z,64.3
2018-04-12T10:44:19.688Z,64.4
2018-04-12T10:45:09.970Z,64.4
2018-04-12T10:45:59.766Z,64.5
2018-04-12T10:46:49.830Z,64.6
2018-04-12T10:47:39.909Z,64.6
2018-04-12T10:48:30.222Z,64.7
2018-04-12T10:49:20.040Z,64.8
2018-04-12T10:50:09.813Z,64.9
2018-04-12T10:51:00.445Z,64.9
2018-04-12T10:51:50.216Z,65
2018-04-12T10:52:40.321Z,65.1
2018-04-12T10:53:30.622Z,65.1
2018-04-12T10:54:20.683Z,65.2
2018-04-12T10:55:10.508Z,65.3
2018-04-12T10:56:00.530Z,65.3
2018-04-12T10:56:50.620Z,65.4
2018-04-12T10:57:41.000Z,65.4
2018-04-12T10:58:30.752Z,65.5
2018-04-12T10:59:20.924Z,65.6
2018-04-12T11:00:11.146Z,65.7
2018-04-12T11:01:01.212Z,65.8
2018-04-12T11:01:50.755Z,65.8
2018-04-12T11:02:41.349Z,65.9
2018-04-12T11:03:31.649Z,65.9
2018-04-12T11:04:20.912Z,66
2018-04-12T11:05:10.987Z,66.1
2018-04-12T11:06:01.062Z,66.1
2018-04-12T11:06:51.651Z,66.2
2018-04-12T11:07:41.180Z,66.3
2018-04-12T11:08:31.542Z,66.3
2018-04-12T11:09:21.589Z,66.4
2018-04-12T11:10:11.397Z,66.4
2018-04-12T11:11:01.726Z,66.5
2018-04-12T11:11:51.787Z,66.6
2018-04-12T11:12:41.844Z,66.6
2018-04-12T11:13:32.210Z,66.7
2018-04-12T11:14:21.694Z,66.8
2018-04-12T11:15:11.790Z,66.8
2018-04-12T11:16:02.449Z,66.9
2018-04-12T11:16:51.926Z,66.9
2018-04-12T11:17:42.236Z,67
2018-04-12T11:18:33.560Z,67
2018-04-12T11:19:22.359Z,67.1
2018-04-12T11:20:12.704Z,67.1
2018-04-12T11:21:02.849Z,67.2
2018-04-12T11:21:52.289Z,67.3
2018-04-12T11:22:42.641Z,67.3
2018-04-12T11:23:32.656Z,67.4
2018-04-12T11:24:23.235Z,67.4
2018-04-12T11:25:13.105Z,67.4
2018-04-12T11:26:03.373Z,67.5
2018-04-12T11:26:52.488Z,67.6
2018-04-12T11:27:43.335Z,67.6
2018-04-12T11:28:32.529Z,67.7
2018-04-12T11:29:23.503Z,67.8
2018-04-12T11:30:13.492Z,67.8
2018-04-12T11:31:03.010Z,67.8
2018-04-12T11:31:53.625Z,67.9
2018-04-12T11:32:42.853Z,67.9
2018-04-12T11:33:32.912Z,67.9
2018-04-12T11:34:23.211Z,68.1
2018-04-12T11:35:13.994Z,68.1
2018-04-12T11:36:03.964Z,68.1
2018-04-12T11:36:53.593Z,68.2
2018-04-12T11:37:43.511Z,68.2
2018-04-12T11:38:34.148Z,68.3
2018-04-12T11:39:24.118Z,68.3
2018-04-12T11:40:14.282Z,68.4
2018-04-12T11:41:04.379Z,68.4
2018-04-12T11:41:53.850Z,68.4
2018-04-12T11:42:44.179Z,68.5
2018-04-12T11:43:34.240Z,68.6
2018-04-12T11:44:24.568Z,68.6
2018-04-12T11:45:14.208Z,68.6
2018-04-12T11:46:04.467Z,68.7
2018-04-12T11:46:54.971Z,68.7
2018-04-12T11:47:44.856Z,68.8
2018-04-12T11:48:34.472Z,68.8
2018-04-12T11:49:24.138Z,68.8
2018-04-12T11:50:14.759Z,68.9
2018-04-12T11:51:04.864Z,68.9
2018-04-12T11:51:55.188Z,69
2018-04-12T11:52:44.950Z,69.1
2018-04-12T11:53:35.347Z,69.1
2018-04-12T11:54:24.816Z,69.1
2018-04-12T11:55:15.271Z,69.2
2018-04-12T11:56:05.112Z,69.2
2018-04-12T11:56:55.124Z,69.3
2018-04-12T11:57:45.096Z,69.3
2018-04-12T11:58:35.706Z,69.3
2018-04-12T11:59:24.901Z,69.4
2018-04-12T12:00:15.605Z,69.4
2018-04-12T12:01:05.242Z,69.4
2018-04-12T12:01:55.720Z,69.5
2018-04-12T12:02:44.995Z,69.6
2018-04-12T12:03:36.128Z,69.6
2018-04-12T12:04:25.406Z,69.6
2018-04-12T12:05:15.680Z,69.6
2018-04-12T12:06:06.020Z,69.7
2018-04-12T12:06:56.347Z,69.8
2018-04-12T12:07:45.671Z,69.8
2018-04-12T12:08:36.221Z,69.8
2018-04-12T12:09:25.800Z,69.8
2018-04-12T12:10:16.625Z,69.9
2018-04-12T12:11:06.395Z,69.9
2018-04-12T12:11:56.490Z,69.9
2018-04-12T12:12:46.848Z,70
2018-04-12T12:13:36.606Z,70
2018-04-12T12:14:26.717Z,70.1
2018-04-12T12:15:16.734Z,70.1
2018-04-12T12:16:06.219Z,70.1
2018-04-12T12:16:57.120Z,70.1
2018-04-12T12:17:46.724Z,70.2
2018-04-12T12:18:36.720Z,70.3
2018-04-12T12:19:27.111Z,70.3
2018-04-12T12:20:17.145Z,70.3
2018-04-12T12:21:07.192Z,70.3
2018-04-12T12:21:57.538Z,70.4
2018-04-12T12:22:47.324Z,70.4
2018-04-12T12:23:37.658Z,70.4
2018-04-12T12:24:27.467Z,70.4
2018-04-12T12:25:17.767Z,70.5
2018-04-12T12:26:07.855Z,70.5
2018-04-12T12:26:57.927Z,70.5
2018-04-12T12:27:47.969Z,70.6
2018-04-12T12:28:37.553Z,70.6
2018-04-12T12:29:28.135Z,70.6
2018-04-12T12:30:17.612Z,70.6
2018-04-12T12:31:07.675Z,70.6
2018-04-12T12:31:58.030Z,70.6
2018-04-12T12:32:47.842Z,70.7
2018-04-12T12:33:38.169Z,70.7
2018-04-12T12:34:28.519Z,70.8
2018-04-12T12:35:18.582Z,70.8
2018-04-12T12:36:08.646Z,70.8
2018-04-12T12:36:58.716Z,70.8
2018-04-12T12:37:48.489Z,70.8
2018-04-12T12:38:38.289Z,70.8
2018-04-12T12:39:28.624Z,70.9
2018-04-12T12:40:18.979Z,70.9
2018-04-12T12:41:08.428Z,70.9
2018-04-12T12:41:58.551Z,70.9
2018-04-12T12:42:48.891Z,70.9
2018-04-12T12:43:39.223Z,70.9
2018-04-12T12:44:29.304Z,71
2018-04-12T12:45:18.806Z,71
2018-04-12T12:46:09.446Z,71
2018-04-12T12:46:59.493Z,71
2018-04-12T12:47:48.979Z,71.1
2018-04-12T12:48:38.478Z,71.1
2018-04-12T12:49:29.665Z,71.1
2018-04-12T12:50:19.495Z,71.1
2018-04-12T12:51:09.793Z,71.1
2018-04-12T12:51:59.878Z,71.1
2018-04-12T12:52:49.645Z,71.1
2018-04-12T12:53:39.436Z,71.1
2018-04-12T12:54:29.773Z,71.1
2018-04-12T12:55:19.576Z,71.1
2018-04-12T12:56:10.532Z,71.1
2018-04-12T12:56:59.410Z,71.2
2018-04-12T12:57:50.043Z,71.2
2018-04-12T12:58:40.394Z,71.2
2018-04-12T12:59:30.188Z,71.2
2018-04-12T13:00:20.533Z,71.2
2018-04-12T13:01:10.388Z,71.2
2018-04-12T13:02:00.628Z,71.3
2018-04-12T13:02:50.727Z,71.3
2018-04-12T13:03:40.097Z,71.3
2018-04-12T13:04:30.559Z,71.3
2018-04-12T13:05:20.944Z,71.3
2018-04-12T13:06:10.974Z,71.3
2018-04-12T13:07:00.754Z,71.3
2018-04-12T13:07:50.807Z,71.3
2018-04-12T13:08:40.591Z,71.3
2018-04-12T13:09:30.674Z,71.3
2018-04-12T13:10:21.009Z,71.3
2018-04-12T13:11:10.813Z,71.3
2018-04-12T13:12:01.143Z,71.3
2018-04-12T13:12:50.666Z,71.3
2018-04-12T13:13:41.016Z,71.3
2018-04-12T13:14:31.078Z,71.3
2018-04-12T13:15:21.685Z,71.3
2018-04-12T13:16:11.773Z,71.3
2018-04-12T13:17:01.526Z,71.3
2018-04-12T13:17:51.904Z,71.3
2018-04-12T13:18:41.941Z,71.3
2018-04-12T13:19:31.743Z,71.3
2018-04-12T13:20:21.810Z,71.3
2018-04-12T13:21:11.865Z,71.3
2018-04-12T13:22:01.663Z,71.3
2018-04-12T13:22:52.385Z,71.3
2018-04-12T13:23:41.780Z,71.3
2018-04-12T13:24:31.557Z,71.3
2018-04-12T13:25:22.451Z,71.3
2018-04-12T13:26:12.507Z,71.3
2018-04-12T13:27:02.008Z,71.3
2018-04-12T13:27:52.084Z,71.3
2018-04-12T13:28:42.737Z,71.3
2018-04-12T13:29:32.821Z,71.3
2018-04-12T13:30:22.562Z,71.3
2018-04-12T13:31:12.919Z,71.3
2018-04-12T13:32:02.394Z,71.3
2018-04-12T13:32:52.466Z,71.3
2018-04-12T13:33:42.819Z,71.3
2018-04-12T13:34:32.851Z,71.3
2018-04-12T13:35:22.963Z,71.3
2018-04-12T13:36:13.001Z,71.3
2018-04-12T13:37:03.379Z,71.3
2018-04-12T13:37:52.936Z,71.2
2018-04-12T13:38:42.938Z,71.3
2018-04-12T13:39:33.305Z,71.2
2018-04-12T13:40:23.041Z,71.3
2018-04-12T13:41:13.144Z,71.2
2018-04-12T13:42:03.750Z,71.2
2018-04-12T13:42:53.542Z,71.2
2018-04-12T13:43:43.884Z,71.2
2018-04-12T13:44:33.699Z,71.2
2018-04-12T13:45:23.514Z,71.2
2018-04-12T13:46:14.096Z,71.2
2018-04-12T13:47:03.611Z,71.2
2018-04-12T13:47:53.431Z,71.2
2018-04-12T13:48:43.997Z,71.1
2018-04-12T13:49:34.335Z,71.1
2018-04-12T13:50:24.120Z,71.1
2018-04-12T13:51:13.796Z,71.1
2018-04-12T13:52:04.014Z,71.1
2018-04-12T13:52:54.053Z,71.1
2018-04-12T13:53:44.664Z,71.1
2018-04-12T13:54:34.147Z,71.1
2018-04-12T13:55:23.730Z,71.1
2018-04-12T13:56:14.497Z,71.1
2018-04-12T13:57:04.748Z,71.1
2018-04-12T13:57:54.402Z,71.1
2018-04-12T13:58:44.205Z,71.1
2018-04-12T13:59:34.807Z,71.1
2018-04-12T14:00:25.184Z,71.1
2018-04-12T14:01:14.671Z,71.1
2018-04-12T14:02:04.470Z,71.1
2018-04-12T14:02:54.297Z,71
2018-04-12T14:03:45.410Z,71
2018-04-12T14:04:35.536Z,71
2018-04-12T14:05:25.014Z,71
2018-04-12T14:06:15.315Z,71
2018-04-12T14:07:05.696Z,71
2018-04-12T14:07:55.219Z,71
2018-04-12T14:08:45.606Z,71
2018-04-12T14:09:35.318Z,71
2018-04-12T14:10:25.914Z,71
2018-04-12T14:11:15.423Z,70.9
2018-04-12T14:12:06.080Z,70.9
2018-04-12T14:12:56.129Z,70.9
2018-04-12T14:13:45.928Z,70.9
2018-04-12T14:14:35.684Z,70.9
2018-04-12T14:15:26.354Z,70.9
2018-04-12T14:16:16.119Z,70.9
2018-04-12T14:17:06.189Z,70.9
2018-04-12T14:17:56.537Z,70.9
2018-04-12T14:18:46.660Z,70.9
2018-04-12T14:19:36.667Z,70.9
2018-04-12T14:20:26.439Z,70.9
2018-04-12T14:21:16.464Z,70.9
2018-04-12T14:22:06.270Z,70.9
2018-04-12T14:22:56.893Z,70.9
2018-04-12T14:23:46.953Z,70.9
2018-04-12T14:24:37.014Z,70.8
2018-04-12T14:25:26.640Z,70.9
2018-04-12T14:26:16.906Z,70.8
2018-04-12T14:27:07.333Z,70.8
2018-04-12T14:27:56.730Z,70.8
2018-04-12T14:28:46.210Z,70.8
2018-04-12T14:29:37.413Z,70.8
2018-04-12T14:30:27.512Z,70.8
2018-04-12T14:31:17.567Z,70.8
2018-04-12T14:32:06.767Z,70.8
2018-04-12T14:32:57.652Z,70.8
2018-04-12T14:33:47.451Z,70.8
2018-04-12T14:34:37.808Z,70.8
2018-04-12T14:35:27.877Z,70.8
2018-04-12T14:36:18.479Z,70.8
2018-04-12T14:37:07.707Z,70.8
2018-04-12T14:37:57.497Z,70.8
2018-04-12T14:38:47.542Z,70.8
2018-04-12T14:39:37.935Z,70.8
2018-04-12T14:40:27.681Z,70.8
2018-04-12T14:41:18.306Z,70.7
2018-04-12T14:42:08.145Z,70.7
2018-04-12T14:42:57.883Z,70.7
2018-04-12T14:43:48.481Z,70.7
2018-04-12T14:44:38.028Z,70.7
2018-04-12T14:45:28.331Z,70.7
2018-04-12T14:46:17.860Z,70.7
2018-04-12T14:47:08.791Z,70.7
2018-04-12T14:47:58.253Z,70.6
2018-04-12T14:48:47.747Z,70.6
2018-04-12T14:49:38.932Z,70.6
2018-04-12T14:50:28.737Z,70.7
2018-04-12T14:51:19.076Z,70.6
2018-04-12T14:52:09.152Z,70.6
2018-04-12T14:52:59.179Z,70.6
2018-04-12T14:53:48.147Z,70.6
2018-04-12T14:54:39.332Z,70.6
2018-04-12T14:55:28.832Z,70.6
2018-04-12T14:56:18.632Z,70.6
2018-04-12T14:57:09.300Z,70.6
2018-04-12T14:57:59.037Z,70.6
2018-04-12T14:58:49.089Z,70.6
2018-04-12T14:59:39.184Z,70.6
2018-04-12T15:00:29.780Z,70.6
2018-04-12T15:01:19.835Z,70.6
2018-04-12T15:02:09.937Z,70.5
2018-04-12T15:02:59.407Z,70.5
2018-04-12T15:03:49.502Z,70.5
2018-04-12T15:04:39.588Z,70.5
2018-04-12T15:05:30.153Z,70.5
2018-04-12T15:06:19.852Z,70.5
2018-04-12T15:07:09.736Z,70.5
2018-04-12T15:08:00.357Z,70.5
2018-04-12T15:08:50.162Z,70.4
2018-04-12T15:09:40.211Z,70.4
2018-04-12T15:10:30.550Z,70.4
2018-04-12T15:11:20.369Z,70.4
2018-04-12T15:12:10.133Z,70.4
2018-04-12T15:13:00.687Z,70.4
2018-04-12T15:13:50.542Z,70.4
2018-04-12T15:14:39.748Z,70.4
2018-04-12T15:15:30.359Z,70.4
2018-04-12T15:16:20.465Z,70.4
2018-04-12T15:17:10.800Z,70.4
2018-04-12T15:18:00.279Z,70.4
2018-04-12T15:18:51.006Z,70.4
2018-04-12T15:19:41.256Z,70.4
2018-04-12T15:20:31.074Z,70.4
2018-04-12T15:21:20.812Z,70.4
2018-04-12T15:22:10.697Z,70.4
2018-04-12T15:23:01.557Z,70.4
2018-04-12T15:23:51.009Z,70.4
2018-04-12T15:24:41.351Z,70.4
2018-04-12T15:25:31.149Z,70.3
2018-04-12T15:26:21.518Z,70.3
2018-04-12T15:27:11.361Z,70.3
2018-04-12T15:28:01.902Z,70.3
2018-04-12T15:28:51.182Z,70.3
2018-04-12T15:29:42.006Z,70.3
2018-04-12T15:30:32.081Z,70.3
2018-04-12T15:31:21.025Z,70.3
2018-04-12T15:32:12.519Z,70.3
2018-04-12T15:33:02.280Z,70.3
2018-04-12T15:33:52.070Z,70.3
2018-04-12T15:34:41.841Z,70.3
2018-04-12T15:35:31.882Z,70.3
2018-04-12T15:36:22.237Z,70.3
2018-04-12T15:37:12.312Z,70.3
2018-04-12T15:38:02.364Z,70.2
2018-04-12T15:38:52.483Z,70.2
2018-04-12T15:39:42.601Z,70.2
2018-04-12T15:40:32.833Z,70.2
2018-04-12T15:41:22.892Z,70.2
2018-04-12T15:42:12.692Z,70.2
2018-04-12T15:43:02.472Z,70.2
2018-04-12T15:43:52.816Z,70.1
2018-04-12T15:44:42.320Z,70.2
2018-04-12T15:45:33.207Z,70.2
2018-04-12T15:46:22.998Z,70.1
2018-04-12T15:47:13.375Z,70.1
2018-04-12T15:48:03.129Z,70.1
2018-04-12T15:48:53.455Z,70.1
2018-04-12T15:49:43.526Z,70.1
2018-04-12T15:50:33.342Z,70.1
2018-04-12T15:51:23.412Z,70.1
2018-04-12T15:52:12.705Z,70.1
2018-04-12T15:53:02.741Z,70.1
2018-04-12T15:53:53.362Z,70.1
2018-04-12T15:54:43.379Z,70.1
2018-04-12T15:55:33.806Z,70.1
2018-04-12T15:56:23.196Z,70.1
2018-04-12T15:57:13.547Z,70.1
2018-04-12T15:58:03.914Z,70
2018-04-12T15:58:53.391Z,70.1
2018-04-12T15:59:44.305Z,70
2018-04-12T16:00:34.091Z,70
2018-04-12T16:01:23.700Z,70
2018-04-12T16:02:14.504Z,70
2018-04-12T16:03:04.619Z,70
2018-04-12T16:03:54.598Z,70
2018-04-12T16:04:44.094Z,70
2018-04-12T16:05:34.749Z,70
2018-04-12T16:06:24.800Z,69.9
2018-04-12T16:07:14.929Z,69.9
2018-04-12T16:08:04.952Z,69.9
2018-04-12T16:08:54.730Z,69.9
2018-04-12T16:09:45.073Z,69.9
2018-04-12T16:10:34.866Z,69.9
2018-04-12T16:11:25.224Z,69.9
2018-04-12T16:12:14.705Z,69.9
2018-04-12T16:13:05.341Z,69.9
2018-04-12T16:13:55.092Z,69.9
2018-04-12T16:14:45.170Z,69.9
2018-04-12T16:15:34.950Z,69.9
2018-04-12T16:16:25.559Z,69.9
2018-04-12T16:17:15.086Z,69.9
2018-04-12T16:18:05.151Z,69.9
2018-04-12T16:18:55.486Z,69.9
2018-04-12T16:19:45.863Z,69.9
2018-04-12T16:20:35.884Z,69.9
2018-04-12T16:21:25.982Z,69.8
2018-04-12T16:22:15.447Z,69.8
2018-04-12T16:23:05.805Z,69.8
2018-04-12T16:23:55.957Z,69.8
2018-04-12T16:24:45.898Z,69.8
2018-04-12T16:25:36.288Z,69.8
2018-04-12T16:26:25.496Z,69.8
2018-04-12T16:27:16.153Z,69.8
2018-04-12T16:28:06.170Z,69.8
2018-04-12T16:28:56.551Z,69.8
2018-04-12T16:29:46.328Z,69.8
2018-04-12T16:30:36.362Z,69.8
2018-04-12T16:31:26.176Z,69.8
2018-04-12T16:32:16.500Z,69.8
2018-04-12T16:33:06.830Z,69.8
2018-04-12T16:33:56.342Z,69.7
2018-04-12T16:34:46.704Z,69.7
2018-04-12T16:35:37.062Z,69.7
2018-04-12T16:36:26.601Z,69.7
2018-04-12T16:37:16.605Z,69.7
2018-04-12T16:38:07.225Z,69.7
2018-04-12T16:38:57.322Z,69.7
2018-04-12T16:39:47.344Z,69.6
2018-04-12T16:40:37.150Z,69.6
2018-04-12T16:41:27.541Z,69.6
2018-04-12T16:42:17.512Z,69.7
2018-04-12T16:43:07.608Z,69.6
2018-04-12T16:43:57.710Z,69.6
2018-04-12T16:44:47.430Z,69.6
2018-04-12T16:45:37.540Z,69.6
2018-04-12T16:46:27.855Z,69.6
2018-04-12T16:47:17.077Z,69.6
2018-04-12T16:48:07.711Z,69.6
2018-04-12T16:48:58.054Z,69.6
2018-04-12T16:49:48.102Z,69.6
2018-04-12T16:50:37.587Z,69.6